sensor_id;sensor_type;location;lat;lon;timestamp;P1;durP1;ratioP1;P2;durP2;ratioP2
18899;SDS011;9582;52.018;6.306;2023-07-02T00:01:50;6.28;;;3.22;;
18899;SDS011;9582;52.018;6.306;2023-07-02T00:04:17;5.30;;;3.50;;
18899;SDS011;9582;52.018;6.306;2023-07-02T00:06:46;7.50;;;3.35;;
18899;SDS011;9582;52.018;6.306;2023-07-02T00:09:13;6.63;;;3.20;;
18899;SDS011;9582;52.018;6.306;2023-07-02T00:11:41;4.05;;;3.63;;
18899;SDS011;9582;52.018;6.306;2023-07-02T00:14:09;4.95;;;3.40;;
18899;SDS011;9582;52.018;6.306;2023-07-02T00:16:37;6.25;;;3.50;;
18899;SDS011;9582;52.018;6.306;2023-07-02T00:19:05;7.75;;;4.10;;
18899;SDS011;9582;52.018;6.306;2023-07-02T00:21:31;8.25;;;4.13;;
18899;SDS011;9582;52.018;6.306;2023-07-02T00:24:00;7.90;;;3.78;;
18899;SDS011;9582;52.018;6.306;2023-07-02T00:26:27;6.78;;;3.60;;
18899;SDS011;9582;52.018;6.306;2023-07-02T00:28:54;4.97;;;3.83;;
18899;SDS011;9582;52.018;6.306;2023-07-02T00:31:21;9.98;;;4.60;;
18899;SDS011;9582;52.018;6.306;2023-07-02T00:33:48;10.43;;;4.45;;
18899;SDS011;9582;52.018;6.306;2023-07-02T00:36:16;8.57;;;4.57;;
18899;SDS011;9582;52.018;6.306;2023-07-02T00:38:44;10.25;;;4.80;;
18899;SDS011;9582;52.018;6.306;2023-07-02T00:41:13;8.93;;;4.90;;
18899;SDS011;9582;52.018;6.306;2023-07-02T00:43:40;10.35;;;5.30;;
18899;SDS011;9582;52.018;6.306;2023-07-02T00:46:09;10.80;;;5.35;;
18899;SDS011;9582;52.018;6.306;2023-07-02T00:48:38;10.13;;;5.20;;
18899;SDS011;9582;52.018;6.306;2023-07-02T00:51:05;10.55;;;5.43;;
18899;SDS011;9582;52.018;6.306;2023-07-02T00:53:32;10.40;;;5.28;;
18899;SDS011;9582;52.018;6.306;2023-07-02T00:55:59;12.00;;;6.28;;
18899;SDS011;9582;52.018;6.306;2023-07-02T00:58:27;10.90;;;6.32;;
18899;SDS011;9582;52.018;6.306;2023-07-02T01:00:54;12.35;;;5.80;;
18899;SDS011;9582;52.018;6.306;2023-07-02T01:03:21;15.32;;;6.35;;
18899;SDS011;9582;52.018;6.306;2023-07-02T01:05:48;11.10;;;6.63;;
18899;SDS011;9582;52.018;6.306;2023-07-02T01:08:14;12.65;;;6.43;;
18899;SDS011;9582;52.018;6.306;2023-07-02T01:10:43;13.27;;;6.35;;
18899;SDS011;9582;52.018;6.306;2023-07-02T01:13:11;13.13;;;6.78;;
18899;SDS011;9582;52.018;6.306;2023-07-02T01:15:44;12.95;;;7.35;;
18899;SDS011;9582;52.018;6.306;2023-07-02T01:18:12;11.95;;;7.15;;
18899;SDS011;9582;52.018;6.306;2023-07-02T01:20:42;12.45;;;7.13;;
18899;SDS011;9582;52.018;6.306;2023-07-02T01:23:09;18.33;;;8.63;;
18899;SDS011;9582;52.018;6.306;2023-07-02T01:25:36;16.52;;;8.32;;
18899;SDS011;9582;52.018;6.306;2023-07-02T01:28:03;17.60;;;8.85;;
18899;SDS011;9582;52.018;6.306;2023-07-02T01:30:30;17.42;;;7.90;;
18899;SDS011;9582;52.018;6.306;2023-07-02T01:32:57;12.25;;;7.32;;
18899;SDS011;9582;52.018;6.306;2023-07-02T01:35:23;11.88;;;6.80;;
18899;SDS011;9582;52.018;6.306;2023-07-02T01:37:51;10.95;;;6.68;;
18899;SDS011;9582;52.018;6.306;2023-07-02T01:40:17;13.25;;;7.15;;
18899;SDS011;9582;52.018;6.306;2023-07-02T01:42:44;11.20;;;6.60;;
18899;SDS011;9582;52.018;6.306;2023-07-02T01:45:10;13.60;;;6.72;;
18899;SDS011;9582;52.018;6.306;2023-07-02T01:47:37;15.32;;;7.07;;
18899;SDS011;9582;52.018;6.306;2023-07-02T01:50:04;13.07;;;6.40;;
18899;SDS011;9582;52.018;6.306;2023-07-02T01:52:33;12.18;;;6.32;;
18899;SDS011;9582;52.018;6.306;2023-07-02T01:55:02;12.90;;;6.22;;
18899;SDS011;9582;52.018;6.306;2023-07-02T01:57:30;9.57;;;5.78;;
18899;SDS011;9582;52.018;6.306;2023-07-02T01:59:56;14.27;;;6.63;;
18899;SDS011;9582;52.018;6.306;2023-07-02T02:02:24;12.82;;;5.93;;
18899;SDS011;9582;52.018;6.306;2023-07-02T02:04:50;11.43;;;6.28;;
18899;SDS011;9582;52.018;6.306;2023-07-02T02:07:18;11.77;;;6.43;;
18899;SDS011;9582;52.018;6.306;2023-07-02T02:09:45;13.88;;;6.60;;
18899;SDS011;9582;52.018;6.306;2023-07-02T02:12:13;10.30;;;6.28;;
18899;SDS011;9582;52.018;6.306;2023-07-02T02:14:40;11.40;;;6.07;;
18899;SDS011;9582;52.018;6.306;2023-07-02T02:17:07;16.27;;;6.43;;
18899;SDS011;9582;52.018;6.306;2023-07-02T02:19:33;13.23;;;6.25;;
18899;SDS011;9582;52.018;6.306;2023-07-02T02:22:00;10.80;;;6.63;;
18899;SDS011;9582;52.018;6.306;2023-07-02T02:24:26;12.95;;;6.10;;
18899;SDS011;9582;52.018;6.306;2023-07-02T02:26:53;15.20;;;6.57;;
18899;SDS011;9582;52.018;6.306;2023-07-02T02:29:21;13.32;;;6.22;;
18899;SDS011;9582;52.018;6.306;2023-07-02T02:31:48;11.82;;;6.55;;
18899;SDS011;9582;52.018;6.306;2023-07-02T02:34:15;16.35;;;7.68;;
18899;SDS011;9582;52.018;6.306;2023-07-02T02:36:42;15.02;;;6.82;;
18899;SDS011;9582;52.018;6.306;2023-07-02T02:39:09;12.60;;;6.63;;
18899;SDS011;9582;52.018;6.306;2023-07-02T02:41:36;12.32;;;6.80;;
18899;SDS011;9582;52.018;6.306;2023-07-02T02:44:02;13.30;;;6.47;;
18899;SDS011;9582;52.018;6.306;2023-07-02T02:46:30;11.75;;;6.55;;
18899;SDS011;9582;52.018;6.306;2023-07-02T02:48:57;12.05;;;6.60;;
18899;SDS011;9582;52.018;6.306;2023-07-02T02:51:24;14.77;;;7.03;;
18899;SDS011;9582;52.018;6.306;2023-07-02T02:53:51;16.70;;;7.95;;
18899;SDS011;9582;52.018;6.306;2023-07-02T02:56:17;14.38;;;7.68;;
18899;SDS011;9582;52.018;6.306;2023-07-02T02:58:44;12.57;;;7.05;;
18899;SDS011;9582;52.018;6.306;2023-07-02T03:01:10;14.45;;;7.38;;
18899;SDS011;9582;52.018;6.306;2023-07-02T03:03:39;17.95;;;7.40;;
18899;SDS011;9582;52.018;6.306;2023-07-02T03:06:10;16.08;;;6.90;;
18899;SDS011;9582;52.018;6.306;2023-07-02T03:08:37;14.70;;;7.50;;
18899;SDS011;9582;52.018;6.306;2023-07-02T03:11:05;14.77;;;7.60;;
18899;SDS011;9582;52.018;6.306;2023-07-02T03:13:31;17.00;;;7.80;;
18899;SDS011;9582;52.018;6.306;2023-07-02T03:15:58;14.93;;;7.18;;
18899;SDS011;9582;52.018;6.306;2023-07-02T03:18:25;16.65;;;8.23;;
18899;SDS011;9582;52.018;6.306;2023-07-02T03:20:53;16.45;;;7.50;;
18899;SDS011;9582;52.018;6.306;2023-07-02T03:23:19;19.63;;;7.45;;
18899;SDS011;9582;52.018;6.306;2023-07-02T03:25:46;15.52;;;7.32;;
18899;SDS011;9582;52.018;6.306;2023-07-02T03:28:12;17.77;;;7.45;;
18899;SDS011;9582;52.018;6.306;2023-07-02T03:30:39;15.20;;;7.50;;
18899;SDS011;9582;52.018;6.306;2023-07-02T03:33:05;17.00;;;7.70;;
18899;SDS011;9582;52.018;6.306;2023-07-02T03:35:32;17.42;;;8.18;;
18899;SDS011;9582;52.018;6.306;2023-07-02T03:37:59;16.38;;;7.93;;
18899;SDS011;9582;52.018;6.306;2023-07-02T03:40:26;17.42;;;7.85;;
18899;SDS011;9582;52.018;6.306;2023-07-02T03:42:52;16.27;;;7.82;;
18899;SDS011;9582;52.018;6.306;2023-07-02T03:45:19;20.70;;;8.00;;
18899;SDS011;9582;52.018;6.306;2023-07-02T03:47:45;15.10;;;7.78;;
18899;SDS011;9582;52.018;6.306;2023-07-02T03:50:12;15.77;;;7.60;;
18899;SDS011;9582;52.018;6.306;2023-07-02T03:52:38;16.00;;;7.50;;
18899;SDS011;9582;52.018;6.306;2023-07-02T03:55:07;15.50;;;8.02;;
18899;SDS011;9582;52.018;6.306;2023-07-02T03:57:34;16.00;;;7.70;;
18899;SDS011;9582;52.018;6.306;2023-07-02T04:00:00;14.82;;;7.95;;
18899;SDS011;9582;52.018;6.306;2023-07-02T04:02:27;15.77;;;8.25;;
18899;SDS011;9582;52.018;6.306;2023-07-02T04:04:53;18.23;;;8.15;;
18899;SDS011;9582;52.018;6.306;2023-07-02T04:07:20;16.13;;;7.85;;
18899;SDS011;9582;52.018;6.306;2023-07-02T04:09:46;16.30;;;7.82;;
18899;SDS011;9582;52.018;6.306;2023-07-02T04:12:14;19.13;;;8.50;;
18899;SDS011;9582;52.018;6.306;2023-07-02T04:14:41;14.48;;;8.32;;
18899;SDS011;9582;52.018;6.306;2023-07-02T04:17:07;19.45;;;8.25;;
18899;SDS011;9582;52.018;6.306;2023-07-02T04:19:34;16.10;;;7.63;;
18899;SDS011;9582;52.018;6.306;2023-07-02T04:22:00;20.02;;;8.15;;
18899;SDS011;9582;52.018;6.306;2023-07-02T04:24:27;15.73;;;7.90;;
18899;SDS011;9582;52.018;6.306;2023-07-02T04:26:54;13.85;;;7.95;;
18899;SDS011;9582;52.018;6.306;2023-07-02T04:29:21;17.40;;;7.65;;
18899;SDS011;9582;52.018;6.306;2023-07-02T04:31:48;14.85;;;7.63;;
18899;SDS011;9582;52.018;6.306;2023-07-02T04:34:14;14.50;;;7.07;;
18899;SDS011;9582;52.018;6.306;2023-07-02T04:36:41;15.45;;;8.13;;
18899;SDS011;9582;52.018;6.306;2023-07-02T04:39:09;17.63;;;7.70;;
18899;SDS011;9582;52.018;6.306;2023-07-02T04:41:36;15.55;;;8.23;;
18899;SDS011;9582;52.018;6.306;2023-07-02T04:44:02;15.60;;;7.82;;
18899;SDS011;9582;52.018;6.306;2023-07-02T04:46:30;16.40;;;7.85;;
18899;SDS011;9582;52.018;6.306;2023-07-02T04:48:57;17.73;;;7.90;;
18899;SDS011;9582;52.018;6.306;2023-07-02T04:51:24;15.55;;;7.93;;
18899;SDS011;9582;52.018;6.306;2023-07-02T04:53:50;13.30;;;6.90;;
18899;SDS011;9582;52.018;6.306;2023-07-02T04:56:17;13.75;;;7.03;;
18899;SDS011;9582;52.018;6.306;2023-07-02T04:58:43;15.20;;;7.32;;
18899;SDS011;9582;52.018;6.306;2023-07-02T05:01:10;14.48;;;7.40;;
18899;SDS011;9582;52.018;6.306;2023-07-02T05:03:38;11.63;;;6.93;;
18899;SDS011;9582;52.018;6.306;2023-07-02T05:06:04;20.83;;;8.07;;
18899;SDS011;9582;52.018;6.306;2023-07-02T05:08:31;15.60;;;8.27;;
18899;SDS011;9582;52.018;6.306;2023-07-02T05:10:57;15.32;;;7.68;;
18899;SDS011;9582;52.018;6.306;2023-07-02T05:13:24;13.73;;;7.20;;
18899;SDS011;9582;52.018;6.306;2023-07-02T05:15:50;15.80;;;7.07;;
18899;SDS011;9582;52.018;6.306;2023-07-02T05:18:17;19.27;;;7.75;;
18899;SDS011;9582;52.018;6.306;2023-07-02T05:20:45;21.75;;;8.25;;
18899;SDS011;9582;52.018;6.306;2023-07-02T05:23:11;16.73;;;7.40;;
18899;SDS011;9582;52.018;6.306;2023-07-02T05:25:39;15.50;;;7.63;;
18899;SDS011;9582;52.018;6.306;2023-07-02T05:28:05;14.70;;;7.38;;
18899;SDS011;9582;52.018;6.306;2023-07-02T05:30:32;19.58;;;7.72;;
18899;SDS011;9582;52.018;6.306;2023-07-02T05:32:58;17.55;;;7.85;;
18899;SDS011;9582;52.018;6.306;2023-07-02T05:35:26;17.45;;;7.93;;
18899;SDS011;9582;52.018;6.306;2023-07-02T05:37:54;17.73;;;7.68;;
18899;SDS011;9582;52.018;6.306;2023-07-02T05:40:20;15.70;;;7.43;;
18899;SDS011;9582;52.018;6.306;2023-07-02T05:42:47;16.58;;;7.30;;
18899;SDS011;9582;52.018;6.306;2023-07-02T05:45:14;16.10;;;7.85;;
18899;SDS011;9582;52.018;6.306;2023-07-02T05:47:40;17.05;;;7.63;;
18899;SDS011;9582;52.018;6.306;2023-07-02T05:50:07;17.08;;;7.03;;
18899;SDS011;9582;52.018;6.306;2023-07-02T05:52:34;15.52;;;7.53;;
18899;SDS011;9582;52.018;6.306;2023-07-02T05:55:02;13.00;;;6.38;;
18899;SDS011;9582;52.018;6.306;2023-07-02T05:57:29;18.33;;;7.47;;
18899;SDS011;9582;52.018;6.306;2023-07-02T05:59:56;13.30;;;7.40;;
18899;SDS011;9582;52.018;6.306;2023-07-02T06:02:22;18.05;;;7.10;;
18899;SDS011;9582;52.018;6.306;2023-07-02T06:04:49;15.88;;;7.20;;
18899;SDS011;9582;52.018;6.306;2023-07-02T06:07:15;18.05;;;7.25;;
18899;SDS011;9582;52.018;6.306;2023-07-02T06:09:42;16.65;;;7.55;;
18899;SDS011;9582;52.018;6.306;2023-07-02T06:12:10;17.40;;;7.75;;
18899;SDS011;9582;52.018;6.306;2023-07-02T06:14:36;16.92;;;7.60;;
18899;SDS011;9582;52.018;6.306;2023-07-02T06:17:03;14.88;;;6.95;;
18899;SDS011;9582;52.018;6.306;2023-07-02T06:19:31;15.23;;;7.03;;
18899;SDS011;9582;52.018;6.306;2023-07-02T06:21:58;13.35;;;6.90;;
18899;SDS011;9582;52.018;6.306;2023-07-02T06:24:24;19.20;;;7.10;;
18899;SDS011;9582;52.018;6.306;2023-07-02T06:26:51;15.18;;;7.38;;
18899;SDS011;9582;52.018;6.306;2023-07-02T06:29:19;20.92;;;7.93;;
18899;SDS011;9582;52.018;6.306;2023-07-02T06:31:45;15.23;;;7.40;;
18899;SDS011;9582;52.018;6.306;2023-07-02T06:34:12;18.58;;;7.80;;
18899;SDS011;9582;52.018;6.306;2023-07-02T06:36:39;13.98;;;7.47;;
18899;SDS011;9582;52.018;6.306;2023-07-02T06:39:06;15.07;;;7.05;;
18899;SDS011;9582;52.018;6.306;2023-07-02T06:41:34;17.58;;;7.13;;
18899;SDS011;9582;52.018;6.306;2023-07-02T06:44:00;15.82;;;6.70;;
18899;SDS011;9582;52.018;6.306;2023-07-02T06:46:28;10.73;;;5.93;;
18899;SDS011;9582;52.018;6.306;2023-07-02T06:48:55;14.80;;;6.72;;
18899;SDS011;9582;52.018;6.306;2023-07-02T06:51:22;14.77;;;6.32;;
18899;SDS011;9582;52.018;6.306;2023-07-02T06:53:50;13.55;;;5.25;;
18899;SDS011;9582;52.018;6.306;2023-07-02T06:56:17;15.68;;;6.15;;
18899;SDS011;9582;52.018;6.306;2023-07-02T06:58:43;14.23;;;6.68;;
18899;SDS011;9582;52.018;6.306;2023-07-02T07:01:09;14.13;;;5.97;;
18899;SDS011;9582;52.018;6.306;2023-07-02T07:03:37;12.65;;;6.40;;
18899;SDS011;9582;52.018;6.306;2023-07-02T07:06:04;18.20;;;6.60;;
18899;SDS011;9582;52.018;6.306;2023-07-02T07:08:30;14.32;;;6.20;;
18899;SDS011;9582;52.018;6.306;2023-07-02T07:10:57;17.42;;;6.22;;
18899;SDS011;9582;52.018;6.306;2023-07-02T07:13:23;16.75;;;6.78;;
18899;SDS011;9582;52.018;6.306;2023-07-02T07:15:50;13.55;;;6.80;;
18899;SDS011;9582;52.018;6.306;2023-07-02T07:18:16;14.07;;;6.43;;
18899;SDS011;9582;52.018;6.306;2023-07-02T07:20:44;17.50;;;6.18;;
18899;SDS011;9582;52.018;6.306;2023-07-02T07:23:11;15.75;;;6.32;;
18899;SDS011;9582;52.018;6.306;2023-07-02T07:25:37;15.70;;;5.82;;
18899;SDS011;9582;52.018;6.306;2023-07-02T07:28:04;15.38;;;6.32;;
18899;SDS011;9582;52.018;6.306;2023-07-02T07:30:30;16.23;;;6.55;;
18899;SDS011;9582;52.018;6.306;2023-07-02T07:32:57;15.95;;;6.38;;
18899;SDS011;9582;52.018;6.306;2023-07-02T07:35:23;13.40;;;5.63;;
18899;SDS011;9582;52.018;6.306;2023-07-02T07:37:51;11.75;;;5.32;;
18899;SDS011;9582;52.018;6.306;2023-07-02T07:40:18;13.68;;;6.28;;
18899;SDS011;9582;52.018;6.306;2023-07-02T07:42:44;12.43;;;5.63;;
18899;SDS011;9582;52.018;6.306;2023-07-02T07:45:11;13.00;;;5.13;;
18899;SDS011;9582;52.018;6.306;2023-07-02T07:47:37;10.30;;;5.68;;
18899;SDS011;9582;52.018;6.306;2023-07-02T07:50:04;14.38;;;5.43;;
18899;SDS011;9582;52.018;6.306;2023-07-02T07:52:35;10.55;;;5.07;;
18899;SDS011;9582;52.018;6.306;2023-07-02T07:55:04;14.95;;;5.95;;
18899;SDS011;9582;52.018;6.306;2023-07-02T07:57:31;11.85;;;5.90;;
18899;SDS011;9582;52.018;6.306;2023-07-02T07:59:57;10.45;;;5.32;;
18899;SDS011;9582;52.018;6.306;2023-07-02T08:02:24;9.95;;;4.63;;
18899;SDS011;9582;52.018;6.306;2023-07-02T08:04:51;13.13;;;5.35;;
18899;SDS011;9582;52.018;6.306;2023-07-02T08:07:17;10.75;;;4.82;;
18899;SDS011;9582;52.018;6.306;2023-07-02T08:09:43;11.68;;;5.50;;
18899;SDS011;9582;52.018;6.306;2023-07-02T08:12:11;10.98;;;5.32;;
18899;SDS011;9582;52.018;6.306;2023-07-02T08:14:38;13.38;;;5.95;;
18899;SDS011;9582;52.018;6.306;2023-07-02T08:17:04;10.63;;;4.93;;
18899;SDS011;9582;52.018;6.306;2023-07-02T08:19:31;12.25;;;5.68;;
18899;SDS011;9582;52.018;6.306;2023-07-02T08:21:58;12.32;;;4.72;;
18899;SDS011;9582;52.018;6.306;2023-07-02T08:24:24;11.35;;;5.32;;
18899;SDS011;9582;52.018;6.306;2023-07-02T08:26:50;10.30;;;4.22;;
18899;SDS011;9582;52.018;6.306;2023-07-02T08:29:18;11.25;;;5.47;;
18899;SDS011;9582;52.018;6.306;2023-07-02T08:31:45;9.45;;;3.90;;
18899;SDS011;9582;52.018;6.306;2023-07-02T08:34:11;9.88;;;3.88;;
18899;SDS011;9582;52.018;6.306;2023-07-02T08:36:38;9.80;;;4.97;;
18899;SDS011;9582;52.018;6.306;2023-07-02T08:39:04;6.78;;;4.10;;
18899;SDS011;9582;52.018;6.306;2023-07-02T08:41:41;13.52;;;5.47;;
18899;SDS011;9582;52.018;6.306;2023-07-02T08:44:08;11.43;;;5.53;;
18899;SDS011;9582;52.018;6.306;2023-07-02T08:46:38;8.90;;;5.35;;
18899;SDS011;9582;52.018;6.306;2023-07-02T08:49:05;6.82;;;3.55;;
18899;SDS011;9582;52.018;6.306;2023-07-02T08:51:32;6.40;;;3.45;;
18899;SDS011;9582;52.018;6.306;2023-07-02T08:53:59;5.53;;;3.75;;
18899;SDS011;9582;52.018;6.306;2023-07-02T08:56:26;9.70;;;5.22;;
18899;SDS011;9582;52.018;6.306;2023-07-02T08:58:52;11.40;;;5.00;;
18899;SDS011;9582;52.018;6.306;2023-07-02T09:01:19;9.80;;;5.47;;
18899;SDS011;9582;52.018;6.306;2023-07-02T09:03:48;5.30;;;3.00;;
18899;SDS011;9582;52.018;6.306;2023-07-02T09:06:17;8.82;;;4.15;;
18899;SDS011;9582;52.018;6.306;2023-07-02T09:08:44;8.70;;;4.50;;
18899;SDS011;9582;52.018;6.306;2023-07-02T09:11:11;9.65;;;4.90;;
18899;SDS011;9582;52.018;6.306;2023-07-02T09:13:42;11.05;;;4.88;;
18899;SDS011;9582;52.018;6.306;2023-07-02T09:16:19;8.60;;;4.50;;
18899;SDS011;9582;52.018;6.306;2023-07-02T09:18:56;9.07;;;4.80;;
18899;SDS011;9582;52.018;6.306;2023-07-02T09:21:27;7.72;;;3.70;;
18899;SDS011;9582;52.018;6.306;2023-07-02T09:23:54;7.72;;;3.08;;
18899;SDS011;9582;52.018;6.306;2023-07-02T09:26:20;6.35;;;3.00;;
18899;SDS011;9582;52.018;6.306;2023-07-02T09:28:47;7.70;;;3.72;;
18899;SDS011;9582;52.018;6.306;2023-07-02T09:31:14;8.07;;;4.07;;
18899;SDS011;9582;52.018;6.306;2023-07-02T09:33:41;9.35;;;4.90;;
18899;SDS011;9582;52.018;6.306;2023-07-02T09:36:08;8.13;;;4.10;;
18899;SDS011;9582;52.018;6.306;2023-07-02T09:38:35;8.50;;;4.07;;
18899;SDS011;9582;52.018;6.306;2023-07-02T09:41:03;9.93;;;4.10;;
18899;SDS011;9582;52.018;6.306;2023-07-02T09:43:29;8.55;;;4.82;;
18899;SDS011;9582;52.018;6.306;2023-07-02T09:45:58;8.32;;;3.40;;
18899;SDS011;9582;52.018;6.306;2023-07-02T09:48:24;6.75;;;3.63;;
18899;SDS011;9582;52.018;6.306;2023-07-02T09:50:53;8.52;;;4.60;;
18899;SDS011;9582;52.018;6.306;2023-07-02T09:53:22;8.77;;;4.43;;
18899;SDS011;9582;52.018;6.306;2023-07-02T09:55:48;9.35;;;4.80;;
18899;SDS011;9582;52.018;6.306;2023-07-02T09:58:15;7.68;;;4.35;;
18899;SDS011;9582;52.018;6.306;2023-07-02T10:00:42;8.10;;;4.25;;
18899;SDS011;9582;52.018;6.306;2023-07-02T10:03:09;8.43;;;4.55;;
18899;SDS011;9582;52.018;6.306;2023-07-02T10:05:35;6.82;;;4.18;;
18899;SDS011;9582;52.018;6.306;2023-07-02T10:08:11;8.88;;;4.68;;
18899;SDS011;9582;52.018;6.306;2023-07-02T10:10:39;7.57;;;3.20;;
18899;SDS011;9582;52.018;6.306;2023-07-02T10:13:06;8.82;;;4.65;;
18899;SDS011;9582;52.018;6.306;2023-07-02T10:15:33;5.82;;;3.92;;
18899;SDS011;9582;52.018;6.306;2023-07-02T10:18:03;8.25;;;3.83;;
18899;SDS011;9582;52.018;6.306;2023-07-02T10:20:34;7.57;;;2.75;;
18899;SDS011;9582;52.018;6.306;2023-07-02T10:23:02;6.88;;;3.75;;
18899;SDS011;9582;52.018;6.306;2023-07-02T10:25:29;6.03;;;3.97;;
18899;SDS011;9582;52.018;6.306;2023-07-02T10:27:58;6.20;;;3.58;;
18899;SDS011;9582;52.018;6.306;2023-07-02T10:30:32;5.75;;;3.45;;
18899;SDS011;9582;52.018;6.306;2023-07-02T10:33:09;7.43;;;4.20;;
18899;SDS011;9582;52.018;6.306;2023-07-02T10:35:36;7.40;;;3.55;;
18899;SDS011;9582;52.018;6.306;2023-07-02T10:38:04;5.93;;;3.85;;
18899;SDS011;9582;52.018;6.306;2023-07-02T10:40:31;4.72;;;2.35;;
18899;SDS011;9582;52.018;6.306;2023-07-02T10:42:59;7.18;;;3.60;;
18899;SDS011;9582;52.018;6.306;2023-07-02T10:45:32;6.40;;;3.88;;
18899;SDS011;9582;52.018;6.306;2023-07-02T10:48:01;7.60;;;3.88;;
18899;SDS011;9582;52.018;6.306;2023-07-02T10:50:28;8.80;;;4.25;;
18899;SDS011;9582;52.018;6.306;2023-07-02T10:52:56;8.43;;;3.58;;
18899;SDS011;9582;52.018;6.306;2023-07-02T10:55:23;9.57;;;3.95;;
18899;SDS011;9582;52.018;6.306;2023-07-02T10:58:02;8.23;;;4.20;;
18899;SDS011;9582;52.018;6.306;2023-07-02T11:00:31;7.80;;;3.85;;
18899;SDS011;9582;52.018;6.306;2023-07-02T11:02:58;6.35;;;3.42;;
18899;SDS011;9582;52.018;6.306;2023-07-02T11:05:25;4.38;;;2.70;;
18899;SDS011;9582;52.018;6.306;2023-07-02T11:07:51;6.05;;;3.40;;
18899;SDS011;9582;52.018;6.306;2023-07-02T11:10:22;8.32;;;3.38;;
18899;SDS011;9582;52.018;6.306;2023-07-02T11:12:49;4.90;;;2.80;;
18899;SDS011;9582;52.018;6.306;2023-07-02T11:15:17;5.53;;;3.13;;
18899;SDS011;9582;52.018;6.306;2023-07-02T11:17:44;4.40;;;3.20;;
18899;SDS011;9582;52.018;6.306;2023-07-02T11:20:11;5.97;;;2.85;;
18899;SDS011;9582;52.018;6.306;2023-07-02T11:22:39;5.35;;;3.22;;
18899;SDS011;9582;52.018;6.306;2023-07-02T11:25:12;7.03;;;3.55;;
18899;SDS011;9582;52.018;6.306;2023-07-02T11:27:40;6.15;;;2.97;;
18899;SDS011;9582;52.018;6.306;2023-07-02T11:30:07;5.75;;;3.17;;
18899;SDS011;9582;52.018;6.306;2023-07-02T11:32:46;6.03;;;3.58;;
18899;SDS011;9582;52.018;6.306;2023-07-02T11:35:14;3.85;;;2.58;;
18899;SDS011;9582;52.018;6.306;2023-07-02T11:37:41;6.40;;;3.35;;
18899;SDS011;9582;52.018;6.306;2023-07-02T11:40:08;4.45;;;2.90;;
18899;SDS011;9582;52.018;6.306;2023-07-02T11:42:36;6.10;;;3.92;;
18899;SDS011;9582;52.018;6.306;2023-07-02T11:45:03;5.07;;;2.97;;
18899;SDS011;9582;52.018;6.306;2023-07-02T11:47:30;7.03;;;3.80;;
18899;SDS011;9582;52.018;6.306;2023-07-02T11:49:58;5.72;;;3.50;;
18899;SDS011;9582;52.018;6.306;2023-07-02T11:52:24;7.20;;;4.07;;
18899;SDS011;9582;52.018;6.306;2023-07-02T11:54:51;6.20;;;3.50;;
18899;SDS011;9582;52.018;6.306;2023-07-02T11:57:17;6.82;;;3.70;;
18899;SDS011;9582;52.018;6.306;2023-07-02T11:59:44;6.00;;;2.60;;
18899;SDS011;9582;52.018;6.306;2023-07-02T12:02:10;6.15;;;3.42;;
18899;SDS011;9582;52.018;6.306;2023-07-02T12:04:37;7.95;;;3.33;;
18899;SDS011;9582;52.018;6.306;2023-07-02T12:07:06;7.30;;;3.72;;
18899;SDS011;9582;52.018;6.306;2023-07-02T12:09:32;6.10;;;3.35;;
18899;SDS011;9582;52.018;6.306;2023-07-02T12:11:59;3.60;;;2.55;;
18899;SDS011;9582;52.018;6.306;2023-07-02T12:14:25;5.80;;;3.53;;
18899;SDS011;9582;52.018;6.306;2023-07-02T12:16:52;5.75;;;3.60;;
18899;SDS011;9582;52.018;6.306;2023-07-02T12:19:18;5.43;;;3.40;;
18899;SDS011;9582;52.018;6.306;2023-07-02T12:21:45;5.45;;;3.50;;
18899;SDS011;9582;52.018;6.306;2023-07-02T12:24:13;6.72;;;3.55;;
18899;SDS011;9582;52.018;6.306;2023-07-02T12:26:39;5.35;;;3.28;;
18899;SDS011;9582;52.018;6.306;2023-07-02T12:29:06;5.40;;;3.30;;
18899;SDS011;9582;52.018;6.306;2023-07-02T12:31:32;5.97;;;3.20;;
18899;SDS011;9582;52.018;6.306;2023-07-02T12:33:59;5.68;;;3.70;;
18899;SDS011;9582;52.018;6.306;2023-07-02T12:36:25;7.60;;;3.00;;
18899;SDS011;9582;52.018;6.306;2023-07-02T12:38:52;5.85;;;3.00;;
18899;SDS011;9582;52.018;6.306;2023-07-02T12:41:20;5.53;;;3.08;;
18899;SDS011;9582;52.018;6.306;2023-07-02T12:43:46;6.90;;;3.20;;
18899;SDS011;9582;52.018;6.306;2023-07-02T12:46:12;5.28;;;3.72;;
18899;SDS011;9582;52.018;6.306;2023-07-02T12:48:39;5.75;;;3.08;;
18899;SDS011;9582;52.018;6.306;2023-07-02T12:51:05;3.65;;;2.80;;
18899;SDS011;9582;52.018;6.306;2023-07-02T12:53:32;4.15;;;2.78;;
18899;SDS011;9582;52.018;6.306;2023-07-02T12:55:58;6.28;;;3.42;;
18899;SDS011;9582;52.018;6.306;2023-07-02T12:58:26;4.55;;;2.88;;
18899;SDS011;9582;52.018;6.306;2023-07-02T13:00:53;7.00;;;3.05;;
18899;SDS011;9582;52.018;6.306;2023-07-02T13:03:20;6.45;;;3.25;;
18899;SDS011;9582;52.018;6.306;2023-07-02T13:05:48;4.22;;;2.78;;
18899;SDS011;9582;52.018;6.306;2023-07-02T13:08:15;6.47;;;2.30;;
18899;SDS011;9582;52.018;6.306;2023-07-02T13:10:41;7.57;;;3.22;;
18899;SDS011;9582;52.018;6.306;2023-07-02T13:13:08;5.68;;;3.28;;
18899;SDS011;9582;52.018;6.306;2023-07-02T13:15:36;5.78;;;3.00;;
18899;SDS011;9582;52.018;6.306;2023-07-02T13:18:03;5.47;;;2.60;;
18899;SDS011;9582;52.018;6.306;2023-07-02T13:20:30;5.72;;;2.83;;
18899;SDS011;9582;52.018;6.306;2023-07-02T13:22:56;5.88;;;3.67;;
18899;SDS011;9582;52.018;6.306;2023-07-02T13:25:23;5.65;;;3.08;;
18899;SDS011;9582;52.018;6.306;2023-07-02T13:27:50;7.22;;;3.53;;
18899;SDS011;9582;52.018;6.306;2023-07-02T13:30:16;5.65;;;3.30;;
18899;SDS011;9582;52.018;6.306;2023-07-02T13:32:44;4.78;;;2.97;;
18899;SDS011;9582;52.018;6.306;2023-07-02T13:35:11;6.95;;;3.13;;
18899;SDS011;9582;52.018;6.306;2023-07-02T13:37:37;3.55;;;1.92;;
18899;SDS011;9582;52.018;6.306;2023-07-02T13:40:04;6.78;;;3.33;;
18899;SDS011;9582;52.018;6.306;2023-07-02T13:42:33;5.80;;;3.08;;
18899;SDS011;9582;52.018;6.306;2023-07-02T13:45:00;7.43;;;3.42;;
18899;SDS011;9582;52.018;6.306;2023-07-02T13:47:26;5.78;;;3.25;;
18899;SDS011;9582;52.018;6.306;2023-07-02T13:49:55;4.57;;;2.42;;
18899;SDS011;9582;52.018;6.306;2023-07-02T13:52:21;6.10;;;2.85;;
18899;SDS011;9582;52.018;6.306;2023-07-02T13:54:47;5.45;;;2.10;;
18899;SDS011;9582;52.018;6.306;2023-07-02T13:57:14;6.65;;;3.20;;
18899;SDS011;9582;52.018;6.306;2023-07-02T13:59:42;4.80;;;3.20;;
18899;SDS011;9582;52.018;6.306;2023-07-02T14:02:08;5.80;;;2.92;;
18899;SDS011;9582;52.018;6.306;2023-07-02T14:04:35;5.30;;;2.90;;
18899;SDS011;9582;52.018;6.306;2023-07-02T14:07:02;4.28;;;3.10;;
18899;SDS011;9582;52.018;6.306;2023-07-02T14:09:29;7.43;;;3.40;;
18899;SDS011;9582;52.018;6.306;2023-07-02T14:11:55;6.75;;;2.97;;
18899;SDS011;9582;52.018;6.306;2023-07-02T14:14:22;5.57;;;3.13;;
18899;SDS011;9582;52.018;6.306;2023-07-02T14:16:49;4.35;;;3.00;;
18899;SDS011;9582;52.018;6.306;2023-07-02T14:19:16;8.50;;;3.65;;
18899;SDS011;9582;52.018;6.306;2023-07-02T14:21:43;4.75;;;3.10;;
18899;SDS011;9582;52.018;6.306;2023-07-02T14:24:11;5.28;;;3.10;;
18899;SDS011;9582;52.018;6.306;2023-07-02T14:26:38;7.03;;;3.33;;
18899;SDS011;9582;52.018;6.306;2023-07-02T14:29:05;7.68;;;3.72;;
18899;SDS011;9582;52.018;6.306;2023-07-02T14:31:31;5.25;;;2.80;;
18899;SDS011;9582;52.018;6.306;2023-07-02T14:33:59;5.55;;;3.28;;
18899;SDS011;9582;52.018;6.306;2023-07-02T14:36:26;6.20;;;3.20;;
18899;SDS011;9582;52.018;6.306;2023-07-02T14:38:52;7.30;;;3.80;;
18899;SDS011;9582;52.018;6.306;2023-07-02T14:41:19;6.93;;;3.67;;
18899;SDS011;9582;52.018;6.306;2023-07-02T14:43:45;5.63;;;3.50;;
18899;SDS011;9582;52.018;6.306;2023-07-02T14:46:12;6.38;;;3.30;;
18899;SDS011;9582;52.018;6.306;2023-07-02T14:48:39;7.50;;;3.22;;
18899;SDS011;9582;52.018;6.306;2023-07-02T14:51:07;5.50;;;2.90;;
18899;SDS011;9582;52.018;6.306;2023-07-02T14:53:34;7.03;;;3.40;;